DNMM/LOS METAR and TAF weather

Enter ICAO airport designator
Station Type Date Time Source
DNMM METAR 2019/05/27 09:00 UTC NOAA

DNMM 270900Z 35003KT 9999 FEW009 26/24 Q1013 NOSIG


Station Type Date Time Source
DNMM Decoded METAR 2019/05/27 09:00 UTC NOAA

Lagos / Ikeja, Nigeria (DNMM) 06-35N 003-20E 38M
May 27, 2019 - 05:00 AM EDT / 2019.05.27 0900 UTC
Wind: from the N (350 degrees) at 3 MPH (3 KT):0
Visibility: greater than 7 mile(s):0
Sky conditions: mostly clear
Temperature: 78 F (26 C)
Dew Point: 75 F (24 C)
Relative Humidity: 88%
Pressure (altimeter): 29.91 in. Hg (1013 hPa)
ob: DNMM 270900Z 35003KT 9999 FEW009 26/24 Q1013 NOSIG
cycle: 9

Station Type Date Time Source
DNMM TAF 2019/05/27 06:21 UTC NOAA

TAF DNMM 270345Z 2706/2812 VRB02KT 8000 SCT009 PROB30
TEMPO 2706/2708 5000 TS BR SCT009 FEW020CB
BECMG2708/2710 27010KT BKN014 FEW020CB
TEMPO 2711/2717 TS BKN014 FEW019CB
BECMG 2718/2720 VRB02KT FEW009

Example: see airport list